« 惜愁-最後の日ハ 石垣空港 2013/3/6 wed | トップページ | 惜愁-最後の日ホ 石垣空港 2013/3/6 wed »

2014/03/10

惜愁-最後の日ニ 石垣空港 2013/3/6 wed

惜愁-最後の日ハからつづき

ニライのニ

時刻は15時を廻って、陽が傾いてきた。

20130306_roig_76ja8597

20130306_roig_77ja8597

JTA611 ROAH-ROIG JA8597 B737-4Q3

20130306_roig_78ja8419

ANA1773 ROAH-ROIG JA8419 B737-54K

20130306_roig_79ja8526

JTA615 ROAH-ROIG JA8526 B737-4Q3

20130306_roig_80ja8597

20130306_roig_81ja8597

20130306_roig_82ja8597

20130306_roig_83ja8597

JTA616 ROIG-ROAH JA8597 B737-4Q3

ROIG 060700Z 06010KT 9999 FEW035 22/13 Q1019

20130306_roig_84ja8419

ANA1776 ROIG-ROAH JA8419 B737-54K

20130306_roig_85ja18an

ANA1775 ROAH-ROIG JA18AN B737-781

20130306_roig_86ja8528

20130306_roig_87ja8528

JTA084 ROIG-ROAH JA8526 B737-4Q3

20130306_roig_88ja03an

ANA1791 ROMY-ROIG JA03AN B737-781

20130306_roig_89ja8999

ROIG 060800Z 06012KT 9999 FEW035 21/14 Q1019

20130306_roig_90ja8999

JTA619 ROAH-ROIG JA8999 B737-446

20130306_roig_91ja356k

ANA1777 ROAH-ROIG JA356K B737-5L9

20130306_roig_92ja8940

JTA073

20130306_roig_93ja8972

RAC705 ROAH-ROIG JA8972 DHC-8-100

20130306_roig_94ja8940

JTA073 RJTT-ROIG JA8940 B737-4Q3

20130306_roig_95ja18an

ANA1748 ROIG-RJBB JA03AN B737-781

20130306_roig_96ja03an

ANA118 ROIG-RJGG JA18AN B737-781

20130306_roig_97ja8999

RAC837 ROMY-ROIG JA8974 DHC-8-100

20130306_roig_98ja8999

20130306_roig_99ja8999

20130306_roig_a00ja8999

JTA622 ROIG-ROAH JA8999 B737-446

次見る時は、最終便だ。

惜愁-最後の日ホにつづく・・・

|

« 惜愁-最後の日ハ 石垣空港 2013/3/6 wed | トップページ | 惜愁-最後の日ホ 石垣空港 2013/3/6 wed »

石垣空港」カテゴリの記事

コメント

コメントを書く



(ウェブ上には掲載しません)


コメントは記事投稿者が公開するまで表示されません。



トラックバック


この記事へのトラックバック一覧です: 惜愁-最後の日ニ 石垣空港 2013/3/6 wed:

« 惜愁-最後の日ハ 石垣空港 2013/3/6 wed | トップページ | 惜愁-最後の日ホ 石垣空港 2013/3/6 wed »